sensor_id;sensor_type;location;lat;lon;timestamp;P1;P2;P0
49528;PMS5003;35423;37.320;-121.762;2022-10-10T00:00:13;6;6;
49528;PMS5003;35423;37.320;-121.762;2022-10-10T00:02:40;5;5;
49528;PMS5003;35423;37.320;-121.762;2022-10-10T00:05:07;11;11;
49528;PMS5003;35423;37.320;-121.762;2022-10-10T00:07:36;7;7;
49528;PMS5003;35423;37.320;-121.762;2022-10-10T00:10:06;2;2;
49528;PMS5003;35423;37.320;-121.762;2022-10-10T00:12:38;3;3;
49528;PMS5003;35423;37.320;-121.762;2022-10-10T00:15:05;4;4;
49528;PMS5003;35423;37.320;-121.762;2022-10-10T00:17:30;7;7;
49528;PMS5003;35423;37.320;-121.762;2022-10-10T00:19:56;8;8;
49528;PMS5003;35423;37.320;-121.762;2022-10-10T00:22:27;8;8;
49528;PMS5003;35423;37.320;-121.762;2022-10-10T00:24:54;3;3;
49528;PMS5003;35423;37.320;-121.762;2022-10-10T00:27:28;8;8;
49528;PMS5003;35423;37.320;-121.762;2022-10-10T00:29:54;7;7;
49528;PMS5003;35423;37.320;-121.762;2022-10-10T00:32:23;1;1;
49528;PMS5003;35423;37.320;-121.762;2022-10-10T00:34:54;8;8;
49528;PMS5003;35423;37.320;-121.762;2022-10-10T00:37:19;8;8;
49528;PMS5003;35423;37.320;-121.762;2022-10-10T00:39:45;4;4;
49528;PMS5003;35423;37.320;-121.762;2022-10-10T00:42:13;0;0;
49528;PMS5003;35423;37.320;-121.762;2022-10-10T00:44:40;11;11;
49528;PMS5003;35423;37.320;-121.762;2022-10-10T00:47:05;5;5;
49528;PMS5003;35423;37.320;-121.762;2022-10-10T00:49:30;4;4;
49528;PMS5003;35423;37.320;-121.762;2022-10-10T00:51:57;2;2;
49528;PMS5003;35423;37.320;-121.762;2022-10-10T00:54:23;5;5;
49528;PMS5003;35423;37.320;-121.762;2022-10-10T00:56:51;6;6;
49528;PMS5003;35423;37.320;-121.762;2022-10-10T00:59:19;5;5;
49528;PMS5003;35423;37.320;-121.762;2022-10-10T01:01:47;6;6;
49528;PMS5003;35423;37.320;-121.762;2022-10-10T01:06:40;1;1;
49528;PMS5003;35423;37.320;-121.762;2022-10-10T01:09:10;0;0;
49528;PMS5003;35423;37.320;-121.762;2022-10-10T01:11:43;4;4;
49528;PMS5003;35423;37.320;-121.762;2022-10-10T01:14:07;3;3;
49528;PMS5003;35423;37.320;-121.762;2022-10-10T01:16:42;3;3;
49528;PMS5003;35423;37.320;-121.762;2022-10-10T01:19:12;2;2;
49528;PMS5003;35423;37.320;-121.762;2022-10-10T01:21:36;4;4;
49528;PMS5003;35423;37.320;-121.762;2022-10-10T01:24:03;6;6;
49528;PMS5003;35423;37.320;-121.762;2022-10-10T01:26:33;5;5;
49528;PMS5003;35423;37.320;-121.762;2022-10-10T01:28:55;6;6;
49528;PMS5003;35423;37.320;-121.762;2022-10-10T01:31:20;7;7;
49528;PMS5003;35423;37.320;-121.762;2022-10-10T01:33:57;28;24;
49528;PMS5003;35423;37.320;-121.762;2022-10-10T01:36:24;8;8;
49528;PMS5003;35423;37.320;-121.762;2022-10-10T01:38:49;9;9;
49528;PMS5003;35423;37.320;-121.762;2022-10-10T01:41:14;4;4;
49528;PMS5003;35423;37.320;-121.762;2022-10-10T01:43:41;2;2;
49528;PMS5003;35423;37.320;-121.762;2022-10-10T01:46:10;5;5;
49528;PMS5003;35423;37.320;-121.762;2022-10-10T01:48:34;6;6;
49528;PMS5003;35423;37.320;-121.762;2022-10-10T01:51:07;5;5;
49528;PMS5003;35423;37.320;-121.762;2022-10-10T01:53:28;4;4;
49528;PMS5003;35423;37.320;-121.762;2022-10-10T01:55:58;3;3;
49528;PMS5003;35423;37.320;-121.762;2022-10-10T01:58:29;1;1;
49528;PMS5003;35423;37.320;-121.762;2022-10-10T02:00:58;6;4;
49528;PMS5003;35423;37.320;-121.762;2022-10-10T02:03:25;5;5;
49528;PMS5003;35423;37.320;-121.762;2022-10-10T02:05:52;5;5;
49528;PMS5003;35423;37.320;-121.762;2022-10-10T02:08:16;1;1;
49528;PMS5003;35423;37.320;-121.762;2022-10-10T02:10:42;1;1;
49528;PMS5003;35423;37.320;-121.762;2022-10-10T02:13:06;2;2;
49528;PMS5003;35423;37.320;-121.762;2022-10-10T02:15:32;2;2;
49528;PMS5003;35423;37.320;-121.762;2022-10-10T02:18:01;2;2;
49528;PMS5003;35423;37.320;-121.762;2022-10-10T02:20:26;6;6;
49528;PMS5003;35423;37.320;-121.762;2022-10-10T02:22:58;3;3;
49528;PMS5003;35423;37.320;-121.762;2022-10-10T02:25:26;4;4;
49528;PMS5003;35423;37.320;-121.762;2022-10-10T02:27:57;2;2;
49528;PMS5003;35423;37.320;-121.762;2022-10-10T02:30:21;0;0;
49528;PMS5003;35423;37.320;-121.762;2022-10-10T02:32:50;0;0;
49528;PMS5003;35423;37.320;-121.762;2022-10-10T02:35:17;3;3;
49528;PMS5003;35423;37.320;-121.762;2022-10-10T02:37:41;1;1;
49528;PMS5003;35423;37.320;-121.762;2022-10-10T02:40:07;1;1;
49528;PMS5003;35423;37.320;-121.762;2022-10-10T02:42:34;3;3;
49528;PMS5003;35423;37.320;-121.762;2022-10-10T02:44:59;6;6;
49528;PMS5003;35423;37.320;-121.762;2022-10-10T02:47:26;2;2;
49528;PMS5003;35423;37.320;-121.762;2022-10-10T02:49:51;5;5;
49528;PMS5003;35423;37.320;-121.762;2022-10-10T02:52:18;1;1;
49528;PMS5003;35423;37.320;-121.762;2022-10-10T02:54:44;1;1;
49528;PMS5003;35423;37.320;-121.762;2022-10-10T02:57:09;5;5;
49528;PMS5003;35423;37.320;-121.762;2022-10-10T02:59:35;3;3;
49528;PMS5003;35423;37.320;-121.762;2022-10-10T03:02:00;1;1;
49528;PMS5003;35423;37.320;-121.762;2022-10-10T03:04:29;2;2;
49528;PMS5003;35423;37.320;-121.762;2022-10-10T03:06:56;2;2;
49528;PMS5003;35423;37.320;-121.762;2022-10-10T03:09:21;1;1;
49528;PMS5003;35423;37.320;-121.762;2022-10-10T03:11:47;2;2;
49528;PMS5003;35423;37.320;-121.762;2022-10-10T03:14:16;3;3;
49528;PMS5003;35423;37.320;-121.762;2022-10-10T03:16:49;2;2;
49528;PMS5003;35423;37.320;-121.762;2022-10-10T03:19:14;1;1;
49528;PMS5003;35423;37.320;-121.762;2022-10-10T03:21:41;1;1;
49528;PMS5003;35423;37.320;-121.762;2022-10-10T03:24:07;4;4;
49528;PMS5003;35423;37.320;-121.762;2022-10-10T03:26:38;2;2;
49528;PMS5003;35423;37.320;-121.762;2022-10-10T03:29:04;1;1;
49528;PMS5003;35423;37.320;-121.762;2022-10-10T03:31:30;4;4;
49528;PMS5003;35423;37.320;-121.762;2022-10-10T03:33:58;4;4;
49528;PMS5003;35423;37.320;-121.762;2022-10-10T03:36:27;8;8;
49528;PMS5003;35423;37.320;-121.762;2022-10-10T03:38:57;3;3;
49528;PMS5003;35423;37.320;-121.762;2022-10-10T03:41:24;1;1;
49528;PMS5003;35423;37.320;-121.762;2022-10-10T03:43:54;4;4;
49528;PMS5003;35423;37.320;-121.762;2022-10-10T03:46:19;6;6;
49528;PMS5003;35423;37.320;-121.762;2022-10-10T03:48:46;5;5;
49528;PMS5003;35423;37.320;-121.762;2022-10-10T03:51:13;3;3;
49528;PMS5003;35423;37.320;-121.762;2022-10-10T03:53:40;1;1;
49528;PMS5003;35423;37.320;-121.762;2022-10-10T03:56:15;11;5;
49528;PMS5003;35423;37.320;-121.762;2022-10-10T03:58:40;6;6;
49528;PMS5003;35423;37.320;-121.762;2022-10-10T04:01:05;3;3;
49528;PMS5003;35423;37.320;-121.762;2022-10-10T04:03:33;4;4;
49528;PMS5003;35423;37.320;-121.762;2022-10-10T04:06:07;9;9;
49528;PMS5003;35423;37.320;-121.762;2022-10-10T04:08:36;5;5;
49528;PMS5003;35423;37.320;-121.762;2022-10-10T04:11:00;3;3;
49528;PMS5003;35423;37.320;-121.762;2022-10-10T04:13:29;3;3;
49528;PMS5003;35423;37.320;-121.762;2022-10-10T04:15:55;4;4;
49528;PMS5003;35423;37.320;-121.762;2022-10-10T04:18:20;3;3;
49528;PMS5003;35423;37.320;-121.762;2022-10-10T04:20:48;4;4;
49528;PMS5003;35423;37.320;-121.762;2022-10-10T04:23:14;3;3;
49528;PMS5003;35423;37.320;-121.762;2022-10-10T04:25:44;3;3;
49528;PMS5003;35423;37.320;-121.762;2022-10-10T04:28:11;1;1;
49528;PMS5003;35423;37.320;-121.762;2022-10-10T04:30:37;2;2;
49528;PMS5003;35423;37.320;-121.762;2022-10-10T04:33:06;2;2;
49528;PMS5003;35423;37.320;-121.762;2022-10-10T04:35:32;8;8;
49528;PMS5003;35423;37.320;-121.762;2022-10-10T04:37:57;4;4;
49528;PMS5003;35423;37.320;-121.762;2022-10-10T04:40:23;30;3;
49528;PMS5003;35423;37.320;-121.762;2022-10-10T04:42:49;6;6;
49528;PMS5003;35423;37.320;-121.762;2022-10-10T04:45:14;2;2;
49528;PMS5003;35423;37.320;-121.762;2022-10-10T04:47:41;1;1;
49528;PMS5003;35423;37.320;-121.762;2022-10-10T04:50:09;3;3;
49528;PMS5003;35423;37.320;-121.762;2022-10-10T04:52:38;2;2;
49528;PMS5003;35423;37.320;-121.762;2022-10-10T04:55:04;2;2;
49528;PMS5003;35423;37.320;-121.762;2022-10-10T04:57:28;5;5;
49528;PMS5003;35423;37.320;-121.762;2022-10-10T04:59:58;8;8;
49528;PMS5003;35423;37.320;-121.762;2022-10-10T05:02:24;5;5;
49528;PMS5003;35423;37.320;-121.762;2022-10-10T05:04:49;1;1;
49528;PMS5003;35423;37.320;-121.762;2022-10-10T05:07:19;0;0;
49528;PMS5003;35423;37.320;-121.762;2022-10-10T05:09:47;3;3;
49528;PMS5003;35423;37.320;-121.762;2022-10-10T05:12:12;6;6;
49528;PMS5003;35423;37.320;-121.762;2022-10-10T05:14:53;1;1;
49528;PMS5003;35423;37.320;-121.762;2022-10-10T05:17:20;3;3;
49528;PMS5003;35423;37.320;-121.762;2022-10-10T05:19:46;6;6;
49528;PMS5003;35423;37.320;-121.762;2022-10-10T05:22:11;2;2;
49528;PMS5003;35423;37.320;-121.762;2022-10-10T05:24:36;2;2;
49528;PMS5003;35423;37.320;-121.762;2022-10-10T05:27:08;3;3;
49528;PMS5003;35423;37.320;-121.762;2022-10-10T05:29:34;7;7;
49528;PMS5003;35423;37.320;-121.762;2022-10-10T05:32:00;8;8;
49528;PMS5003;35423;37.320;-121.762;2022-10-10T05:34:27;9;9;
49528;PMS5003;35423;37.320;-121.762;2022-10-10T05:36:54;9;9;
49528;PMS5003;35423;37.320;-121.762;2022-10-10T05:39:20;11;11;
49528;PMS5003;35423;37.320;-121.762;2022-10-10T05:41:49;8;8;
49528;PMS5003;35423;37.320;-121.762;2022-10-10T05:44:14;12;12;
49528;PMS5003;35423;37.320;-121.762;2022-10-10T05:46:40;9;6;
49528;PMS5003;35423;37.320;-121.762;2022-10-10T05:49:06;14;14;
49528;PMS5003;35423;37.320;-121.762;2022-10-10T05:51:34;11;11;
49528;PMS5003;35423;37.320;-121.762;2022-10-10T05:53:59;12;8;
49528;PMS5003;35423;37.320;-121.762;2022-10-10T05:56:25;5;5;
49528;PMS5003;35423;37.320;-121.762;2022-10-10T05:58:54;10;10;
49528;PMS5003;35423;37.320;-121.762;2022-10-10T06:01:22;8;8;
49528;PMS5003;35423;37.320;-121.762;2022-10-10T06:03:47;12;12;
49528;PMS5003;35423;37.320;-121.762;2022-10-10T06:06:12;7;7;
49528;PMS5003;35423;37.320;-121.762;2022-10-10T06:08:37;11;11;
49528;PMS5003;35423;37.320;-121.762;2022-10-10T06:11:03;23;7;
49528;PMS5003;35423;37.320;-121.762;2022-10-10T06:13:36;13;13;
49528;PMS5003;35423;37.320;-121.762;2022-10-10T06:16:08;17;6;
49528;PMS5003;35423;37.320;-121.762;2022-10-10T06:18:37;6;6;
49528;PMS5003;35423;37.320;-121.762;2022-10-10T06:21:03;5;5;
49528;PMS5003;35423;37.320;-121.762;2022-10-10T06:23:28;12;12;
49528;PMS5003;35423;37.320;-121.762;2022-10-10T06:25:55;10;10;
49528;PMS5003;35423;37.320;-121.762;2022-10-10T06:28:20;10;10;
49528;PMS5003;35423;37.320;-121.762;2022-10-10T06:30:49;4;4;
49528;PMS5003;35423;37.320;-121.762;2022-10-10T06:33:16;5;5;
49528;PMS5003;35423;37.320;-121.762;2022-10-10T06:35:46;9;9;
49528;PMS5003;35423;37.320;-121.762;2022-10-10T06:38:12;9;9;
49528;PMS5003;35423;37.320;-121.762;2022-10-10T06:40:38;8;8;
49528;PMS5003;35423;37.320;-121.762;2022-10-10T06:43:11;4;4;
49528;PMS5003;35423;37.320;-121.762;2022-10-10T06:45:33;6;6;
49528;PMS5003;35423;37.320;-121.762;2022-10-10T06:47:57;8;8;
49528;PMS5003;35423;37.320;-121.762;2022-10-10T06:50:23;11;11;
49528;PMS5003;35423;37.320;-121.762;2022-10-10T06:52:49;8;8;
49528;PMS5003;35423;37.320;-121.762;2022-10-10T06:55:15;7;7;
49528;PMS5003;35423;37.320;-121.762;2022-10-10T06:57:41;6;6;
49528;PMS5003;35423;37.320;-121.762;2022-10-10T07:00:08;6;6;
49528;PMS5003;35423;37.320;-121.762;2022-10-10T07:02:37;20;8;
49528;PMS5003;35423;37.320;-121.762;2022-10-10T07:05:03;11;11;
49528;PMS5003;35423;37.320;-121.762;2022-10-10T07:07:28;4;4;
49528;PMS5003;35423;37.320;-121.762;2022-10-10T07:09:56;11;11;
49528;PMS5003;35423;37.320;-121.762;2022-10-10T07:12:23;9;9;
49528;PMS5003;35423;37.320;-121.762;2022-10-10T07:14:48;5;5;
49528;PMS5003;35423;37.320;-121.762;2022-10-10T07:17:16;9;9;
49528;PMS5003;35423;37.320;-121.762;2022-10-10T07:19:41;9;9;
49528;PMS5003;35423;37.320;-121.762;2022-10-10T07:22:06;8;8;
49528;PMS5003;35423;37.320;-121.762;2022-10-10T07:24:33;7;7;
49528;PMS5003;35423;37.320;-121.762;2022-10-10T07:26:58;8;8;
49528;PMS5003;35423;37.320;-121.762;2022-10-10T07:29:23;3;3;
49528;PMS5003;35423;37.320;-121.762;2022-10-10T07:31:49;6;6;
49528;PMS5003;35423;37.320;-121.762;2022-10-10T07:34:18;13;13;
49528;PMS5003;35423;37.320;-121.762;2022-10-10T07:36:44;6;6;
49528;PMS5003;35423;37.320;-121.762;2022-10-10T07:39:12;5;5;
49528;PMS5003;35423;37.320;-121.762;2022-10-10T07:41:41;15;15;
49528;PMS5003;35423;37.320;-121.762;2022-10-10T07:44:09;6;6;
49528;PMS5003;35423;37.320;-121.762;2022-10-10T07:46:35;6;6;
49528;PMS5003;35423;37.320;-121.762;2022-10-10T07:49:00;13;13;
49528;PMS5003;35423;37.320;-121.762;2022-10-10T07:51:26;13;13;
49528;PMS5003;35423;37.320;-121.762;2022-10-10T07:53:54;18;18;
49528;PMS5003;35423;37.320;-121.762;2022-10-10T07:56:22;23;8;
49528;PMS5003;35423;37.320;-121.762;2022-10-10T07:58:48;6;6;
49528;PMS5003;35423;37.320;-121.762;2022-10-10T08:01:14;9;9;
49528;PMS5003;35423;37.320;-121.762;2022-10-10T08:03:40;12;12;
49528;PMS5003;35423;37.320;-121.762;2022-10-10T08:06:06;13;13;
49528;PMS5003;35423;37.320;-121.762;2022-10-10T08:08:32;13;13;
49528;PMS5003;35423;37.320;-121.762;2022-10-10T08:11:03;15;15;
49528;PMS5003;35423;37.320;-121.762;2022-10-10T08:13:24;11;11;
49528;PMS5003;35423;37.320;-121.762;2022-10-10T08:15:50;14;14;
49528;PMS5003;35423;37.320;-121.762;2022-10-10T08:18:14;15;15;
49528;PMS5003;35423;37.320;-121.762;2022-10-10T08:20:40;15;15;
49528;PMS5003;35423;37.320;-121.762;2022-10-10T08:23:05;14;14;
49528;PMS5003;35423;37.320;-121.762;2022-10-10T08:25:38;11;11;
49528;PMS5003;35423;37.320;-121.762;2022-10-10T08:28:08;13;13;
49528;PMS5003;35423;37.320;-121.762;2022-10-10T08:30:33;18;18;
49528;PMS5003;35423;37.320;-121.762;2022-10-10T08:32:58;8;8;
49528;PMS5003;35423;37.320;-121.762;2022-10-10T08:35:25;10;10;
49528;PMS5003;35423;37.320;-121.762;2022-10-10T08:37:53;14;14;
49528;PMS5003;35423;37.320;-121.762;2022-10-10T08:40:19;16;16;
49528;PMS5003;35423;37.320;-121.762;2022-10-10T08:42:49;7;7;
49528;PMS5003;35423;37.320;-121.762;2022-10-10T08:45:15;7;7;
49528;PMS5003;35423;37.320;-121.762;2022-10-10T08:47:43;5;5;
49528;PMS5003;35423;37.320;-121.762;2022-10-10T08:50:11;19;13;
49528;PMS5003;35423;37.320;-121.762;2022-10-10T08:52:44;11;11;
49528;PMS5003;35423;37.320;-121.762;2022-10-10T08:55:12;9;9;
49528;PMS5003;35423;37.320;-121.762;2022-10-10T08:57:37;15;15;
49528;PMS5003;35423;37.320;-121.762;2022-10-10T09:00:03;14;8;
49528;PMS5003;35423;37.320;-121.762;2022-10-10T09:02:30;19;13;
49528;PMS5003;35423;37.320;-121.762;2022-10-10T09:04:52;14;14;
49528;PMS5003;35423;37.320;-121.762;2022-10-10T09:07:20;13;13;
49528;PMS5003;35423;37.320;-121.762;2022-10-10T09:09:47;15;15;
49528;PMS5003;35423;37.320;-121.762;2022-10-10T09:12:14;19;19;
49528;PMS5003;35423;37.320;-121.762;2022-10-10T09:14:40;7;7;
49528;PMS5003;35423;37.320;-121.762;2022-10-10T09:17:15;14;14;
49528;PMS5003;35423;37.320;-121.762;2022-10-10T09:19:40;7;7;
49528;PMS5003;35423;37.320;-121.762;2022-10-10T09:22:08;10;10;
49528;PMS5003;35423;37.320;-121.762;2022-10-10T09:24:36;12;12;
49528;PMS5003;35423;37.320;-121.762;2022-10-10T09:27:02;14;14;
49528;PMS5003;35423;37.320;-121.762;2022-10-10T09:29:33;12;12;
49528;PMS5003;35423;37.320;-121.762;2022-10-10T09:31:59;16;14;
49528;PMS5003;35423;37.320;-121.762;2022-10-10T09:34:26;13;13;
49528;PMS5003;35423;37.320;-121.762;2022-10-10T09:36:49;12;12;
49528;PMS5003;35423;37.320;-121.762;2022-10-10T09:39:17;16;16;
49528;PMS5003;35423;37.320;-121.762;2022-10-10T09:41:44;17;17;
49528;PMS5003;35423;37.320;-121.762;2022-10-10T09:44:09;13;13;
49528;PMS5003;35423;37.320;-121.762;2022-10-10T09:46:35;9;9;
49528;PMS5003;35423;37.320;-121.762;2022-10-10T09:49:08;21;21;
49528;PMS5003;35423;37.320;-121.762;2022-10-10T09:51:34;11;11;
49528;PMS5003;35423;37.320;-121.762;2022-10-10T09:53:59;14;14;
49528;PMS5003;35423;37.320;-121.762;2022-10-10T09:56:26;17;17;
49528;PMS5003;35423;37.320;-121.762;2022-10-10T09:58:53;23;12;
49528;PMS5003;35423;37.320;-121.762;2022-10-10T10:01:18;18;18;
49528;PMS5003;35423;37.320;-121.762;2022-10-10T10:06:14;16;16;
49528;PMS5003;35423;37.320;-121.762;2022-10-10T10:08:51;20;20;
49528;PMS5003;35423;37.320;-121.762;2022-10-10T10:11:26;15;15;
49528;PMS5003;35423;37.320;-121.762;2022-10-10T10:13:50;18;18;
49528;PMS5003;35423;37.320;-121.762;2022-10-10T10:16:13;23;21;
49528;PMS5003;35423;37.320;-121.762;2022-10-10T10:18:40;14;14;
49528;PMS5003;35423;37.320;-121.762;2022-10-10T10:21:14;22;22;
49528;PMS5003;35423;37.320;-121.762;2022-10-10T10:23:41;7;7;
49528;PMS5003;35423;37.320;-121.762;2022-10-10T10:26:08;10;10;
49528;PMS5003;35423;37.320;-121.762;2022-10-10T10:28:34;31;25;
49528;PMS5003;35423;37.320;-121.762;2022-10-10T10:30:58;16;16;
49528;PMS5003;35423;37.320;-121.762;2022-10-10T10:33:31;14;14;
49528;PMS5003;35423;37.320;-121.762;2022-10-10T10:35:50;15;15;
49528;PMS5003;35423;37.320;-121.762;2022-10-10T10:38:21;11;11;
49528;PMS5003;35423;37.320;-121.762;2022-10-10T10:40:46;21;10;
49528;PMS5003;35423;37.320;-121.762;2022-10-10T10:43:17;22;22;
49528;PMS5003;35423;37.320;-121.762;2022-10-10T10:45:42;28;16;
49528;PMS5003;35423;37.320;-121.762;2022-10-10T10:48:06;10;10;
49528;PMS5003;35423;37.320;-121.762;2022-10-10T10:50:38;20;13;
49528;PMS5003;35423;37.320;-121.762;2022-10-10T10:53:10;17;17;
49528;PMS5003;35423;37.320;-121.762;2022-10-10T10:55:36;16;16;
49528;PMS5003;35423;37.320;-121.762;2022-10-10T11:00:28;21;21;
49528;PMS5003;35423;37.320;-121.762;2022-10-10T11:02:57;11;11;
49528;PMS5003;35423;37.320;-121.762;2022-10-10T11:07:59;21;21;
49528;PMS5003;35423;37.320;-121.762;2022-10-10T11:10:23;14;14;
49528;PMS5003;35423;37.320;-121.762;2022-10-10T11:12:53;21;21;
49528;PMS5003;35423;37.320;-121.762;2022-10-10T11:15:18;8;8;
49528;PMS5003;35423;37.320;-121.762;2022-10-10T11:17:46;22;22;
49528;PMS5003;35423;37.320;-121.762;2022-10-10T11:20:15;12;12;
49528;PMS5003;35423;37.320;-121.762;2022-10-10T11:22:40;13;13;
49528;PMS5003;35423;37.320;-121.762;2022-10-10T11:25:06;23;23;
49528;PMS5003;35423;37.320;-121.762;2022-10-10T11:27:31;13;13;
49528;PMS5003;35423;37.320;-121.762;2022-10-10T11:29:59;16;16;
49528;PMS5003;35423;37.320;-121.762;2022-10-10T11:32:23;20;14;
49528;PMS5003;35423;37.320;-121.762;2022-10-10T11:34:57;14;14;
49528;PMS5003;35423;37.320;-121.762;2022-10-10T11:37:15;25;13;
49528;PMS5003;35423;37.320;-121.762;2022-10-10T11:39:45;22;22;
49528;PMS5003;35423;37.320;-121.762;2022-10-10T11:42:06;17;17;
49528;PMS5003;35423;37.320;-121.762;2022-10-10T11:44:38;20;20;
49528;PMS5003;35423;37.320;-121.762;2022-10-10T11:47:07;31;19;
49528;PMS5003;35423;37.320;-121.762;2022-10-10T11:49:36;13;13;
49528;PMS5003;35423;37.320;-121.762;2022-10-10T11:52:08;17;17;
49528;PMS5003;35423;37.320;-121.762;2022-10-10T11:54:32;20;20;
49528;PMS5003;35423;37.320;-121.762;2022-10-10T11:56:57;17;17;
49528;PMS5003;35423;37.320;-121.762;2022-10-10T11:59:24;26;26;
49528;PMS5003;35423;37.320;-121.762;2022-10-10T12:01:50;26;20;
49528;PMS5003;35423;37.320;-121.762;2022-10-10T12:04:15;18;18;
49528;PMS5003;35423;37.320;-121.762;2022-10-10T12:06:42;21;21;
49528;PMS5003;35423;37.320;-121.762;2022-10-10T12:09:11;16;16;
49528;PMS5003;35423;37.320;-121.762;2022-10-10T12:11:36;15;15;
49528;PMS5003;35423;37.320;-121.762;2022-10-10T12:14:01;26;26;
49528;PMS5003;35423;37.320;-121.762;2022-10-10T12:16:27;16;16;
49528;PMS5003;35423;37.320;-121.762;2022-10-10T12:18:58;24;24;
49528;PMS5003;35423;37.320;-121.762;2022-10-10T12:21:21;24;21;
49528;PMS5003;35423;37.320;-121.762;2022-10-10T12:23:46;23;23;
49528;PMS5003;35423;37.320;-121.762;2022-10-10T12:26:14;26;26;
49528;PMS5003;35423;37.320;-121.762;2022-10-10T12:38:40;18;18;
49528;PMS5003;35423;37.320;-121.762;2022-10-10T12:41:08;12;12;
49528;PMS5003;35423;37.320;-121.762;2022-10-10T12:48:25;12;12;
49528;PMS5003;35423;37.320;-121.762;2022-10-10T12:50:55;21;17;
49528;PMS5003;35423;37.320;-121.762;2022-10-10T12:53:22;13;13;
49528;PMS5003;35423;37.320;-121.762;2022-10-10T12:55:48;11;11;
49528;PMS5003;35423;37.320;-121.762;2022-10-10T12:58:14;22;16;
49528;PMS5003;35423;37.320;-121.762;2022-10-10T13:00:40;18;18;
49528;PMS5003;35423;37.320;-121.762;2022-10-10T13:03:10;19;19;
49528;PMS5003;35423;37.320;-121.762;2022-10-10T13:05:40;19;19;
49528;PMS5003;35423;37.320;-121.762;2022-10-10T13:08:11;28;28;
49528;PMS5003;35423;37.320;-121.762;2022-10-10T13:10:38;17;10;
49528;PMS5003;35423;37.320;-121.762;2022-10-10T13:15:32;19;19;
49528;PMS5003;35423;37.320;-121.762;2022-10-10T13:17:57;22;22;
49528;PMS5003;35423;37.320;-121.762;2022-10-10T13:20:27;21;21;
49528;PMS5003;35423;37.320;-121.762;2022-10-10T13:22:48;26;26;
49528;PMS5003;35423;37.320;-121.762;2022-10-10T13:25:15;29;23;
49528;PMS5003;35423;37.320;-121.762;2022-10-10T13:27:39;20;20;
49528;PMS5003;35423;37.320;-121.762;2022-10-10T13:32:41;34;28;
49528;PMS5003;35423;37.320;-121.762;2022-10-10T13:35:13;31;26;
49528;PMS5003;35423;37.320;-121.762;2022-10-10T13:37:38;18;18;
49528;PMS5003;35423;37.320;-121.762;2022-10-10T13:40:04;29;29;
49528;PMS5003;35423;37.320;-121.762;2022-10-10T13:42:31;30;23;
49528;PMS5003;35423;37.320;-121.762;2022-10-10T13:44:58;16;16;
49528;PMS5003;35423;37.320;-121.762;2022-10-10T13:49:58;26;26;
49528;PMS5003;35423;37.320;-121.762;2022-10-10T13:52:35;33;33;
49528;PMS5003;35423;37.320;-121.762;2022-10-10T13:57:29;23;23;
49528;PMS5003;35423;37.320;-121.762;2022-10-10T13:59:58;25;25;
49528;PMS5003;35423;37.320;-121.762;2022-10-10T14:02:21;29;23;
49528;PMS5003;35423;37.320;-121.762;2022-10-10T14:04:55;25;25;
49528;PMS5003;35423;37.320;-121.762;2022-10-10T14:07:21;32;32;
49528;PMS5003;35423;37.320;-121.762;2022-10-10T14:09:51;25;25;
49528;PMS5003;35423;37.320;-121.762;2022-10-10T14:12:22;20;20;
49528;PMS5003;35423;37.320;-121.762;2022-10-10T14:14:48;11;11;
49528;PMS5003;35423;37.320;-121.762;2022-10-10T14:17:14;24;24;
49528;PMS5003;35423;37.320;-121.762;2022-10-10T14:19:39;24;24;
49528;PMS5003;35423;37.320;-121.762;2022-10-10T14:22:05;45;29;
49528;PMS5003;35423;37.320;-121.762;2022-10-10T14:24:34;25;25;
49528;PMS5003;35423;37.320;-121.762;2022-10-10T14:27:11;17;17;
49528;PMS5003;35423;37.320;-121.762;2022-10-10T14:29:34;23;23;
49528;PMS5003;35423;37.320;-121.762;2022-10-10T14:31:59;25;24;
49528;PMS5003;35423;37.320;-121.762;2022-10-10T14:34:33;24;24;
49528;PMS5003;35423;37.320;-121.762;2022-10-10T14:36:59;28;28;
49528;PMS5003;35423;37.320;-121.762;2022-10-10T14:39:26;20;20;
49528;PMS5003;35423;37.320;-121.762;2022-10-10T14:41:52;28;26;
49528;PMS5003;35423;37.320;-121.762;2022-10-10T14:44:23;20;20;
49528;PMS5003;35423;37.320;-121.762;2022-10-10T14:46:49;22;22;
49528;PMS5003;35423;37.320;-121.762;2022-10-10T14:49:15;24;23;
49528;PMS5003;35423;37.320;-121.762;2022-10-10T14:51:44;44;25;
49528;PMS5003;35423;37.320;-121.762;2022-10-10T14:54:10;27;27;
49528;PMS5003;35423;37.320;-121.762;2022-10-10T14:56:35;38;36;
49528;PMS5003;35423;37.320;-121.762;2022-10-10T14:59:01;37;32;
49528;PMS5003;35423;37.320;-121.762;2022-10-10T15:01:26;28;28;
49528;PMS5003;35423;37.320;-121.762;2022-10-10T15:03:55;19;19;
49528;PMS5003;35423;37.320;-121.762;2022-10-10T15:06:25;33;33;
49528;PMS5003;35423;37.320;-121.762;2022-10-10T15:08:52;26;26;
49528;PMS5003;35423;37.320;-121.762;2022-10-10T15:11:24;20;20;
49528;PMS5003;35423;37.320;-121.762;2022-10-10T15:13:49;17;17;
49528;PMS5003;35423;37.320;-121.762;2022-10-10T15:16:15;15;15;
49528;PMS5003;35423;37.320;-121.762;2022-10-10T15:18:42;20;20;
49528;PMS5003;35423;37.320;-121.762;2022-10-10T15:21:13;19;19;
49528;PMS5003;35423;37.320;-121.762;2022-10-10T15:23:43;24;24;
49528;PMS5003;35423;37.320;-121.762;2022-10-10T15:26:10;29;22;
49528;PMS5003;35423;37.320;-121.762;2022-10-10T15:28:34;33;26;
49528;PMS5003;35423;37.320;-121.762;2022-10-10T15:31:00;21;21;
49528;PMS5003;35423;37.320;-121.762;2022-10-10T15:33:28;27;27;
49528;PMS5003;35423;37.320;-121.762;2022-10-10T15:35:56;19;19;
49528;PMS5003;35423;37.320;-121.762;2022-10-10T15:38:22;40;40;
49528;PMS5003;35423;37.320;-121.762;2022-10-10T15:43:22;33;23;
49528;PMS5003;35423;37.320;-121.762;2022-10-10T15:45:50;14;14;
49528;PMS5003;35423;37.320;-121.762;2022-10-10T15:48:15;25;25;
49528;PMS5003;35423;37.320;-121.762;2022-10-10T15:50:49;20;20;
49528;PMS5003;35423;37.320;-121.762;2022-10-10T15:53:19;17;17;
49528;PMS5003;35423;37.320;-121.762;2022-10-10T15:55:45;23;17;
49528;PMS5003;35423;37.320;-121.762;2022-10-10T15:58:09;31;26;
49528;PMS5003;35423;37.320;-121.762;2022-10-10T16:00:36;27;27;
49528;PMS5003;35423;37.320;-121.762;2022-10-10T16:03:07;20;20;
49528;PMS5003;35423;37.320;-121.762;2022-10-10T16:05:35;25;25;
49528;PMS5003;35423;37.320;-121.762;2022-10-10T16:07:59;25;22;
49528;PMS5003;35423;37.320;-121.762;2022-10-10T16:10:24;18;18;
49528;PMS5003;35423;37.320;-121.762;2022-10-10T16:12:52;15;15;
49528;PMS5003;35423;37.320;-121.762;2022-10-10T16:15:17;35;35;
49528;PMS5003;35423;37.320;-121.762;2022-10-10T16:17:46;13;13;
49528;PMS5003;35423;37.320;-121.762;2022-10-10T16:20:13;26;26;